Time;durP1;ratioP1;P1;durP2;ratioP2;P2;SDS_P1;SDS_P2;PMS_P1;PMS_P2;Temp;Humidity;BMP_temperature;BMP_pressure;BME280_temperature;BME280_humidity;BME280_pressure;Samples;Min_cycle;Max_cycle;Signal;HPM_P1;HPM_P2
2022/09/09 00:00:12;;;;;;;3.07;1.37;;;;;;;15.17;100.00;99581.41;4983843;28;20257;-62
2022/09/09 00:02:38;;;;;;;2.60;1.50;;;;;;;15.28;100.00;99573.56;5006867;28;20670;-62
2022/09/09 00:05:04;;;;;;;3.83;1.83;;;;;;;15.16;100.00;99577.97;4992260;28;20279;-63
2022/09/09 00:07:43;;;;;;;3.93;1.57;;;;;;;15.16;100.00;99572.00;4993227;28;20251;-62
2022/09/09 00:10:23;;;;;;;4.83;1.93;;;;;;;15.06;100.00;99566.75;4995329;28;20275;-62
2022/09/09 00:13:01;;;;;;;2.07;1.03;;;;;;;15.15;100.00;99570.34;5002688;28;20452;-62
2022/09/09 00:15:51;;;;;;;2.53;1.20;;;;;;;15.08;100.00;99562.28;4993022;28;20186;-63
2022/09/09 00:18:42;;;;;;;6.60;1.70;;;;;;;14.98;100.00;99569.97;4991389;28;20191;-62
2022/09/09 00:21:15;;;;;;;3.03;2.13;;;;;;;15.01;100.00;99564.53;4982421;28;20231;-62
2022/09/09 00:23:46;;;;;;;4.63;1.83;;;;;;;15.05;100.00;99574.66;4976183;28;20199;-62
2022/09/09 00:26:24;;;;;;;5.20;1.60;;;;;;;15.00;100.00;99570.66;4989260;28;20204;-63
2022/09/09 00:29:08;;;;;;;2.33;1.13;;;;;;;14.98;100.00;99571.72;4982738;28;20750;-62
2022/09/09 00:31:34;;;;;;;3.63;1.73;;;;;;;14.98;100.00;99563.94;4994650;28;20273;-62
2022/09/09 00:34:17;;;;;;;3.77;1.40;;;;;;;14.82;100.00;99565.22;4985954;28;20188;-63
2022/09/09 00:36:45;;;;;;;2.47;1.60;;;;;;;14.80;100.00;99566.28;4996891;28;20574;-62
2022/09/09 00:39:34;;;;;;;4.97;1.67;;;;;;;14.66;100.00;99565.63;4989450;28;20543;-63
2022/09/09 00:42:42;;;;;;;3.27;1.40;;;;;;;14.61;100.00;99567.72;4980529;28;20227;-62
2022/09/09 00:45:17;;;;;;;5.27;1.87;;;;;;;14.66;100.00;99562.19;4998722;28;20195;-62
2022/09/09 00:47:49;;;;;;;3.33;1.37;;;;;;;14.63;100.00;99563.22;4989944;28;20175;-62
2022/09/09 00:50:46;;;;;;;3.67;1.53;;;;;;;14.52;100.00;99555.50;4984039;28;20270;-62
2022/09/09 00:53:37;;;;;;;2.27;1.50;;;;;;;14.48;100.00;99557.50;4990707;28;20643;-62
2022/09/09 00:56:14;;;;;;;1.73;1.40;;;;;;;14.42;100.00;99564.97;4998339;28;20198;-62
2022/09/09 00:58:47;;;;;;;3.47;1.70;;;;;;;14.27;100.00;99567.81;4992538;28;20199;-62
2022/09/09 01:01:13;;;;;;;3.13;1.87;;;;;;;14.16;100.00;99571.22;4980216;28;20219;-62
2022/09/09 01:03:58;;;;;;;3.40;1.30;;;;;;;14.01;100.00;99572.44;4988663;28;20694;-62
2022/09/09 01:06:38;;;;;;;1.60;1.20;;;;;;;14.05;100.00;99571.25;4988150;28;20234;-62
2022/09/09 01:09:38;;;;;;;2.53;1.50;;;;;;;13.97;100.00;99571.03;4993215;28;20306;-62
2022/09/09 01:12:16;;;;;;;4.73;1.43;;;;;;;14.07;100.00;99573.72;4989894;28;20250;-63
2022/09/09 01:14:47;;;;;;;5.23;1.67;;;;;;;14.14;100.00;99564.53;4988326;28;20225;-63
2022/09/09 01:17:34;;;;;;;4.47;1.47;;;;;;;14.07;100.00;99556.44;4992280;28;20628;-63
2022/09/09 01:20:10;;;;;;;4.63;1.60;;;;;;;14.17;100.00;99551.38;4988613;28;20191;-63
2022/09/09 01:23:00;;;;;;;3.67;1.87;;;;;;;14.19;100.00;99555.47;4977573;28;20621;-63
2022/09/09 01:25:48;;;;;;;4.27;1.60;;;;;;;14.21;100.00;99550.19;4978305;28;20302;-63
2022/09/09 01:28:18;;;;;;;3.07;1.47;;;;;;;14.25;100.00;99540.41;4992645;28;20183;-63
2022/09/09 01:30:43;;;;;;;6.93;1.60;;;;;;;14.19;100.00;99542.53;4979573;28;20597;-63
2022/09/09 01:33:15;;;;;;;3.23;1.83;;;;;;;14.14;100.00;99555.03;4996177;28;20191;-62
2022/09/09 01:36:10;;;;;;;4.63;1.70;;;;;;;14.10;100.00;99550.19;4990669;28;20179;-63
2022/09/09 01:38:36;;;;;;;5.53;2.20;;;;;;;14.16;100.00;99552.31;4984602;28;20303;-62
2022/09/09 01:41:02;;;;;;;2.23;1.63;;;;;;;14.11;100.00;99555.25;4988931;28;20673;-63
2022/09/09 01:43:28;;;;;;;2.77;1.37;;;;;;;14.07;100.00;99561.59;4998569;28;20227;-63
2022/09/09 01:45:56;;;;;;;4.53;2.17;;;;;;;14.16;100.00;99563.47;4990197;28;20211;-62
2022/09/09 01:48:23;;;;;;;5.57;1.47;;;;;;;14.14;100.00;99561.94;4990370;28;20194;-63
2022/09/09 01:50:48;;;;;;;4.63;1.70;;;;;;;14.21;100.00;99563.09;4986296;28;20226;-63
2022/09/09 01:53:16;;;;;;;3.27;1.57;;;;;;;14.01;100.00;99559.50;4999736;28;20184;-62
2022/09/09 01:56:10;;;;;;;3.53;1.60;;;;;;;14.10;100.00;99555.38;4987072;28;20274;-66
2022/09/09 01:58:54;;;;;;;3.67;1.43;;;;;;;14.07;100.00;99559.03;4992305;28;20266;-63
2022/09/09 02:04:49;;;;;;;3.20;1.37;;;;;;;14.05;100.00;99563.47;4990630;28;20274;-63
2022/09/09 02:07:36;;;;;;;4.87;1.60;;;;;;;13.90;100.00;99569.84;4988997;28;20320;-62
2022/09/09 02:10:11;;;;;;;4.10;1.13;;;;;;;13.89;100.00;99566.44;4987493;28;20187;-64
2022/09/09 02:12:41;;;;;;;2.43;1.70;;;;;;;13.70;100.00;99567.03;5001241;28;20218;-63
2022/09/09 02:15:32;;;;;;;6.73;1.70;;;;;;;13.80;100.00;99569.72;4985531;28;20228;-63
2022/09/09 02:17:58;;;;;;;3.50;1.70;;;;;;;13.86;100.00;99574.44;4986319;28;20183;-63
2022/09/09 02:20:27;;;;;;;5.20;1.73;;;;;;;13.86;100.00;99572.66;4984091;28;20249;-62
2022/09/09 02:22:53;;;;;;;2.60;1.60;;;;;;;13.81;100.00;99568.78;5002242;28;20361;-62
2022/09/09 02:25:21;;;;;;;2.80;1.80;;;;;;;13.77;100.00;99565.63;4999647;28;20671;-62
2022/09/09 02:27:50;;;;;;;3.93;1.83;;;;;;;13.75;100.00;99564.91;4991341;28;20187;-63
2022/09/09 02:30:16;;;;;;;3.13;1.90;;;;;;;13.66;100.00;99566.44;4982547;28;20183;-63
2022/09/09 02:32:43;;;;;;;3.03;1.50;;;;;;;13.56;100.00;99565.50;5001926;28;20191;-63
2022/09/09 02:35:14;;;;;;;7.80;2.10;;;;;;;13.36;100.00;99575.53;4991187;28;20190;-63
2022/09/09 02:37:41;;;;;;;4.23;2.00;;;;;;;13.28;100.00;99583.00;4993075;28;20183;-62
2022/09/09 02:40:10;;;;;;;3.57;2.10;;;;;;;13.22;100.00;99575.72;4984210;28;20615;-63
2022/09/09 02:42:43;;;;;;;4.80;1.87;;;;;;;13.21;100.00;99577.50;5008081;28;20258;-62
2022/09/09 02:45:12;;;;;;;6.17;1.70;;;;;;;13.20;100.00;99572.44;4981930;28;20663;-63
2022/09/09 02:47:50;;;;;;;4.47;2.00;;;;;;;13.26;100.00;99579.75;4993850;28;20184;-63
2022/09/09 02:50:25;;;;;;;2.63;1.80;;;;;;;13.29;100.00;99569.16;4985169;28;20187;-63
2022/09/09 02:53:14;;;;;;;3.20;1.83;;;;;;;13.29;100.00;99560.59;5001021;28;20210;-62
2022/09/09 02:56:09;;;;;;;3.27;1.87;;;;;;;13.15;100.00;99562.44;4993329;28;20202;-62
2022/09/09 02:58:35;;;;;;;3.60;1.77;;;;;;;13.09;100.00;99565.47;4993946;28;20252;-62
2022/09/09 03:01:02;;;;;;;2.97;1.70;;;;;;;13.05;100.00;99561.50;4974103;28;20756;-63
2022/09/09 03:03:28;;;;;;;2.87;1.70;;;;;;;13.05;100.00;99570.06;4985091;28;20280;-63
2022/09/09 03:05:54;;;;;;;2.87;1.83;;;;;;;13.07;100.00;99563.03;4989550;28;20189;-63
2022/09/09 03:08:19;;;;;;;3.80;1.90;;;;;;;13.09;100.00;99560.31;4992897;28;20195;-62
2022/09/09 03:10:45;;;;;;;2.53;1.73;;;;;;;13.15;100.00;99559.06;4984183;28;20231;-63
2022/09/09 03:13:11;;;;;;;5.37;2.33;;;;;;;13.14;100.00;99565.16;4991473;28;20220;-63
2022/09/09 03:15:37;;;;;;;2.80;1.70;;;;;;;13.22;100.00;99563.66;5000943;28;20257;-62
2022/09/09 03:18:02;;;;;;;4.57;1.80;;;;;;;13.21;100.00;99561.19;4996197;28;20184;-62
2022/09/09 03:20:29;;;;;;;3.57;2.10;;;;;;;13.32;100.00;99568.13;4987598;28;20231;-64
2022/09/09 03:22:56;;;;;;;3.43;1.60;;;;;;;13.42;100.00;99569.13;4992687;28;20277;-63
2022/09/09 03:25:25;;;;;;;4.67;2.57;;;;;;;13.42;100.00;99574.28;4993700;28;20238;-63
2022/09/09 03:27:54;;;;;;;5.10;1.87;;;;;;;13.39;100.00;99571.91;4992142;28;20607;-63
2022/09/09 03:30:20;;;;;;;4.17;1.77;;;;;;;13.42;100.00;99576.88;4962811;28;20326;-63
2022/09/09 03:32:45;;;;;;;5.13;1.93;;;;;;;13.49;100.00;99578.03;4978489;28;20194;-63
2022/09/09 03:35:10;;;;;;;3.30;1.90;;;;;;;13.53;100.00;99579.47;5001255;28;20186;-63
2022/09/09 03:37:35;;;;;;;5.77;1.93;;;;;;;13.47;100.00;99579.94;5000621;28;20180;-63
2022/09/09 03:40:01;;;;;;;5.20;1.67;;;;;;;13.48;100.00;99576.41;4986965;28;20210;-63
2022/09/09 03:42:27;;;;;;;3.23;1.83;;;;;;;13.35;100.00;99573.88;4977086;28;20219;-64
2022/09/09 03:44:52;;;;;;;3.20;1.73;;;;;;;13.37;100.00;99582.38;4992575;28;21117;-63
2022/09/09 03:47:19;;;;;;;3.37;1.70;;;;;;;13.32;100.00;99581.03;4991523;28;20191;-63
2022/09/09 03:49:45;;;;;;;2.20;1.83;;;;;;;13.28;100.00;99574.47;4992011;28;20200;-63
2022/09/09 03:52:11;;;;;;;4.97;2.10;;;;;;;13.33;100.00;99574.94;4997817;28;20234;-62
2022/09/09 03:54:37;;;;;;;7.03;1.80;;;;;;;13.26;100.00;99586.66;4994426;28;20218;-63
2022/09/09 03:57:04;;;;;;;6.87;1.90;;;;;;;13.21;100.00;99579.25;4991957;28;20191;-63
2022/09/09 03:59:29;;;;;;;5.80;2.03;;;;;;;13.35;100.00;99575.66;4992384;28;20198;-63
2022/09/09 04:01:56;;;;;;;5.63;1.80;;;;;;;13.38;100.00;99565.94;4996696;28;20219;-63
2022/09/09 04:04:22;;;;;;;3.93;2.17;;;;;;;13.50;100.00;99559.00;4994563;28;20488;-63
2022/09/09 04:06:48;;;;;;;2.83;1.80;;;;;;;13.52;100.00;99553.72;4993326;28;20191;-64
2022/09/09 04:09:14;;;;;;;4.53;1.80;;;;;;;13.64;100.00;99557.16;4993646;28;20584;-64
2022/09/09 04:11:39;;;;;;;5.73;1.90;;;;;;;13.68;100.00;99561.13;4996294;28;20221;-63
2022/09/09 04:14:05;;;;;;;4.83;1.67;;;;;;;13.66;100.00;99550.94;4994627;28;20227;-63
2022/09/09 04:16:32;;;;;;;3.73;1.97;;;;;;;13.80;100.00;99549.84;5005853;28;20229;-63
2022/09/09 04:18:58;;;;;;;5.77;1.70;;;;;;;13.78;100.00;99546.59;4991203;28;20198;-63
2022/09/09 04:21:23;;;;;;;5.00;1.87;;;;;;;13.94;100.00;99554.00;4980579;28;20694;-64
2022/09/09 04:23:48;;;;;;;3.60;1.83;;;;;;;13.93;100.00;99549.75;4982673;28;20200;-63
2022/09/09 04:26:14;;;;;;;4.03;1.60;;;;;;;13.90;100.00;99564.69;4991157;28;20741;-62
2022/09/09 04:28:39;;;;;;;4.53;2.07;;;;;;;13.88;100.00;99557.84;4994086;28;20192;-62
2022/09/09 04:31:10;;;;;;;3.57;1.77;;;;;;;13.85;100.00;99552.09;4987998;28;20230;-64
2022/09/09 04:33:36;;;;;;;4.43;1.57;;;;;;;13.78;100.00;99558.69;4999214;28;20912;-62
2022/09/09 04:36:02;;;;;;;4.10;1.80;;;;;;;13.79;100.00;99548.25;4992912;28;20216;-63
2022/09/09 04:38:27;;;;;;;5.87;1.70;;;;;;;13.81;100.00;99559.25;4981900;28;20644;-63
2022/09/09 04:40:53;;;;;;;5.23;1.67;;;;;;;13.73;100.00;99564.22;4978804;28;20655;-64
2022/09/09 04:43:19;;;;;;;5.13;1.90;;;;;;;13.80;100.00;99564.56;4978844;28;20212;-63
2022/09/09 04:45:47;;;;;;;4.00;1.67;;;;;;;13.74;100.00;99565.03;4993354;28;20670;-63
2022/09/09 04:48:13;;;;;;;5.30;1.57;;;;;;;13.81;100.00;99573.97;4998940;28;20210;-63
2022/09/09 04:50:38;;;;;;;7.40;2.47;;;;;;;13.83;100.00;99577.25;4986117;28;20249;-62
2022/09/09 04:53:05;;;;;;;4.43;1.97;;;;;;;13.83;100.00;99572.06;5001650;28;20639;-62
2022/09/09 04:55:31;;;;;;;7.23;2.13;;;;;;;13.88;100.00;99580.31;4992956;28;20210;-63
2022/09/09 04:57:57;;;;;;;5.80;2.20;;;;;;;13.90;100.00;99567.25;5005851;28;20194;-62
2022/09/09 05:00:22;;;;;;;5.03;1.60;;;;;;;13.99;100.00;99579.47;4981798;28;20228;-63
2022/09/09 05:02:48;;;;;;;6.00;2.13;;;;;;;14.03;100.00;99578.31;5004633;28;20563;-62
2022/09/09 05:05:13;;;;;;;3.80;1.80;;;;;;;14.05;100.00;99579.00;4992585;28;20524;-62
2022/09/09 05:07:38;;;;;;;5.50;2.30;;;;;;;14.03;100.00;99573.94;4992349;28;20274;-62
2022/09/09 05:10:05;;;;;;;5.60;2.00;;;;;;;14.22;100.00;99582.06;4982435;28;20262;-63
2022/09/09 05:12:31;;;;;;;5.30;1.97;;;;;;;14.30;100.00;99582.25;4987601;28;20192;-63
2022/09/09 05:14:57;;;;;;;5.07;2.20;;;;;;;14.34;100.00;99579.31;4986464;28;20341;-63
2022/09/09 05:17:22;;;;;;;3.83;1.80;;;;;;;14.27;100.00;99583.31;4991330;28;20207;-63
2022/09/09 05:19:47;;;;;;;5.27;1.70;;;;;;;14.35;100.00;99587.88;4991581;28;20179;-63
2022/09/09 05:22:13;;;;;;;5.50;1.83;;;;;;;14.33;100.00;99590.59;4979684;28;20388;-63
2022/09/09 05:24:38;;;;;;;4.40;2.70;;;;;;;14.24;100.00;99593.09;4991394;28;20242;-62
2022/09/09 05:27:05;;;;;;;7.57;2.30;;;;;;;14.17;100.00;99593.56;4989443;28;20690;-63
2022/09/09 05:29:33;;;;;;;6.43;2.23;;;;;;;14.14;100.00;99591.22;4991058;28;20187;-62
2022/09/09 05:31:58;;;;;;;6.60;2.27;;;;;;;14.14;100.00;99588.66;4979146;28;20242;-62
2022/09/09 05:34:24;;;;;;;5.20;1.70;;;;;;;14.14;100.00;99596.41;4992242;28;20195;-62
2022/09/09 05:36:49;;;;;;;3.30;1.77;;;;;;;14.32;100.00;99595.91;4992805;28;20187;-62
2022/09/09 05:39:14;;;;;;;5.47;1.90;;;;;;;14.22;100.00;99593.22;4988128;28;20196;-63
2022/09/09 05:41:39;;;;;;;3.07;1.60;;;;;;;14.18;100.00;99590.03;4975911;28;20234;-62
2022/09/09 05:44:06;;;;;;;4.73;1.70;;;;;;;14.14;100.00;99593.81;4989311;28;20282;-63
2022/09/09 05:46:31;;;;;;;4.27;1.67;;;;;;;14.28;100.00;99592.72;4986943;28;20266;-63
2022/09/09 05:48:58;;;;;;;7.53;2.10;;;;;;;14.31;100.00;99599.44;4991374;28;20274;-63
2022/09/09 05:51:26;;;;;;;4.87;1.57;;;;;;;14.56;100.00;99603.47;4981192;28;20215;-63
2022/09/09 05:53:52;;;;;;;4.67;1.53;;;;;;;14.76;100.00;99599.38;4988680;28;20219;-63
2022/09/09 05:56:19;;;;;;;2.63;1.47;;;;;;;15.07;100.00;99599.47;4990890;28;20583;-63
2022/09/09 05:58:49;;;;;;;4.93;1.77;;;;;;;15.25;100.00;99607.50;4989758;28;20202;-63
2022/09/09 06:01:17;;;;;;;4.10;1.63;;;;;;;15.07;100.00;99609.00;4979214;28;20226;-63
2022/09/09 06:03:45;;;;;;;5.87;1.50;;;;;;;15.35;100.00;99617.94;4988560;28;20622;-64
2022/09/09 06:06:17;;;;;;;6.93;1.77;;;;;;;15.56;100.00;99617.91;4991173;28;20241;-63
2022/09/09 06:08:44;;;;;;;4.10;1.57;;;;;;;15.96;100.00;99606.00;4990634;28;20182;-63
2022/09/09 06:11:10;;;;;;;7.37;1.73;;;;;;;16.06;100.00;99613.81;4988843;28;20230;-63
2022/09/09 06:13:38;;;;;;;3.27;1.33;;;;;;;16.36;100.00;99607.78;4996273;28;20318;-63
2022/09/09 06:16:04;;;;;;;7.37;1.90;;;;;;;16.55;100.00;99608.75;4997025;28;20185;-63
2022/09/09 06:18:30;;;;;;;4.27;1.77;;;;;;;16.73;100.00;99608.91;4998848;28;20199;-63
2022/09/09 06:20:57;;;;;;;5.23;1.47;;;;;;;17.05;100.00;99605.25;4993585;28;20688;-63
2022/09/09 06:23:23;;;;;;;4.60;1.43;;;;;;;17.33;100.00;99607.94;4996697;28;20577;-63
2022/09/09 06:25:48;;;;;;;2.80;1.30;;;;;;;17.49;100.00;99612.56;4996140;28;20188;-64
2022/09/09 06:28:15;;;;;;;3.23;1.43;;;;;;;17.62;100.00;99613.09;4996074;28;20673;-63
2022/09/09 06:30:41;;;;;;;6.77;1.80;;;;;;;17.69;100.00;99608.16;4989842;28;20246;-63
2022/09/09 06:33:06;;;;;;;4.73;1.70;;;;;;;17.60;100.00;99612.44;5007321;28;20214;-63
2022/09/09 06:35:31;;;;;;;5.40;1.77;;;;;;;17.20;100.00;99614.25;5001797;28;20638;-63
2022/09/09 06:37:58;;;;;;;5.50;1.90;;;;;;;17.37;100.00;99615.34;4990155;28;20521;-66
2022/09/09 06:40:24;;;;;;;4.97;1.63;;;;;;;17.32;100.00;99614.94;4984311;28;20590;-64
2022/09/09 06:42:49;;;;;;;4.23;1.33;;;;;;;17.33;100.00;99611.38;5008934;28;20195;-62
2022/09/09 06:45:14;;;;;;;3.40;1.53;;;;;;;17.12;100.00;99608.13;4996789;28;20623;-62
2022/09/09 06:47:40;;;;;;;5.57;1.53;;;;;;;16.85;100.00;99605.22;4992354;28;20184;-62
2022/09/09 06:50:07;;;;;;;4.27;1.77;;;;;;;16.98;100.00;99610.19;4984149;28;20238;-62
2022/09/09 06:52:33;;;;;;;5.63;1.47;;;;;;;17.16;100.00;99602.50;5011196;28;20185;-62
2022/09/09 06:54:58;;;;;;;6.53;1.87;;;;;;;17.21;100.00;99610.69;5001965;28;20556;-62
2022/09/09 06:57:24;;;;;;;3.83;1.57;;;;;;;17.38;100.00;99616.16;4997351;28;20187;-66
2022/09/09 06:59:49;;;;;;;9.57;1.90;;;;;;;17.38;100.00;99616.16;4994476;28;20192;-62
2022/09/09 07:02:15;;;;;;;4.70;1.67;;;;;;;17.57;100.00;99613.50;4959753;28;20298;-62
2022/09/09 07:04:40;;;;;;;4.43;1.50;;;;;;;17.77;100.00;99607.44;4995837;28;20266;-62
2022/09/09 07:07:05;;;;;;;5.07;1.47;;;;;;;17.42;100.00;99607.13;4997239;28;20213;-62
2022/09/09 07:09:31;;;;;;;2.80;1.50;;;;;;;17.30;100.00;99603.84;4996161;28;20202;-62
2022/09/09 07:11:59;;;;;;;4.40;1.67;;;;;;;17.49;100.00;99610.81;5001318;28;20230;-63
2022/09/09 07:14:24;;;;;;;3.73;1.47;;;;;;;19.06;100.00;99610.00;4997532;28;20558;-65
2022/09/09 07:16:49;;;;;;;3.47;1.90;;;;;;;21.37;83.93;99600.34;4997158;28;20229;-62
2022/09/09 07:19:15;;;;;;;3.17;1.40;;;;;;;22.35;75.27;99608.03;4996338;28;20631;-62
2022/09/09 07:21:41;;;;;;;4.60;1.10;;;;;;;22.61;69.67;99612.97;4995285;28;20230;-62
2022/09/09 07:24:07;;;;;;;4.33;1.80;;;;;;;21.80;74.10;99620.22;4994941;28;20212;-64
2022/09/09 07:26:33;;;;;;;3.40;1.43;;;;;;;22.06;74.37;99619.97;5005273;28;20198;-63
2022/09/09 07:28:59;;;;;;;3.40;1.60;;;;;;;22.97;68.70;99611.56;4992280;28;20517;-62
2022/09/09 07:31:31;;;;;;;3.33;1.40;;;;;;;23.56;64.28;99618.75;4964159;28;20784;-63
2022/09/09 07:33:57;;;;;;;3.77;1.50;;;;;;;23.90;60.75;99632.34;4986929;28;20203;-63
2022/09/09 07:36:25;;;;;;;5.00;1.67;;;;;;;24.67;57.39;99625.78;4996646;28;20179;-63
2022/09/09 07:38:56;;;;;;;4.93;1.50;;;;;;;24.47;57.91;99633.44;4979062;28;20638;-64
2022/09/09 07:41:27;;;;;;;4.55;1.60;;;;;;;24.57;56.80;99633.97;4999782;28;20555;-62
2022/09/09 07:43:53;;;;;;;7.63;1.55;;;;;;;24.55;56.27;99640.38;4998603;28;20221;-62
2022/09/09 07:46:20;;;;;;;6.10;1.70;;;;;;;25.93;49.77;99634.81;4992574;28;20171;-63
2022/09/09 07:48:56;;;;;;;3.83;1.25;;;;;;;25.99;49.46;99636.66;4988827;28;20251;-64
2022/09/09 07:51:30;;;;;;;6.65;1.60;;;;;;;26.22;47.63;99631.09;4974044;28;20231;-63
2022/09/09 07:53:58;;;;;;;3.70;1.70;;;;;;;26.35;47.73;99635.59;4987628;28;20189;-65
2022/09/09 07:56:25;;;;;;;5.35;2.05;;;;;;;25.17;51.35;99651.28;4993098;28;20191;-63
2022/09/09 07:58:53;;;;;;;4.82;1.58;;;;;;;26.15;48.48;99646.06;4994772;28;20191;-63
2022/09/09 08:01:22;;;;;;;6.55;1.95;;;;;;;24.90;52.67;99644.00;4982547;28;20640;-63
2022/09/09 08:03:58;;;;;;;4.32;1.70;;;;;;;24.83;53.41;99652.84;4992514;28;20211;-63
2022/09/09 08:06:24;;;;;;;8.90;2.50;;;;;;;23.09;59.63;99646.06;4992469;28;20184;-63
2022/09/09 08:08:51;;;;;;;6.53;1.92;;;;;;;21.19;70.68;99641.56;4993817;28;20237;-63
2022/09/09 08:11:17;;;;;;;9.10;2.43;;;;;;;21.75;71.53;99645.09;4991218;28;20253;-62
2022/09/09 08:13:43;;;;;;;7.13;2.10;;;;;;;21.77;70.64;99648.38;4991088;28;20258;-63
2022/09/09 08:16:15;;;;;;;6.30;1.73;;;;;;;20.83;75.51;99649.72;4993095;28;20193;-62
2022/09/09 08:18:40;;;;;;;6.93;2.07;;;;;;;20.94;76.87;99650.22;4995696;28;20274;-62
2022/09/09 08:21:11;;;;;;;3.80;2.20;;;;;;;20.70;78.03;99644.91;4990078;28;20326;-62
2022/09/09 08:23:41;;;;;;;6.30;1.70;;;;;;;20.57;78.69;99645.38;5000498;28;20204;-62
2022/09/09 08:26:10;;;;;;;6.47;2.43;;;;;;;20.50;79.83;99662.66;4992090;28;20674;-62
2022/09/09 08:28:35;;;;;;;5.43;1.83;;;;;;;20.60;79.37;99664.19;4988760;28;20231;-63
2022/09/09 08:31:07;;;;;;;4.17;1.57;;;;;;;20.36;79.28;99656.28;4977895;28;20234;-62
2022/09/09 08:33:33;;;;;;;8.03;2.50;;;;;;;20.80;78.05;99648.22;4996997;28;20180;-62
2022/09/09 08:35:58;;;;;;;6.50;1.73;;;;;;;21.11;76.23;99650.19;4988368;28;20254;-64
2022/09/09 08:38:24;;;;;;;7.57;1.90;;;;;;;21.02;76.11;99654.63;4982868;28;20214;-63
2022/09/09 08:40:59;;;;;;;6.27;2.00;;;;;;;20.84;77.06;99661.78;4985834;28;20286;-65
2022/09/09 08:43:27;;;;;;;6.07;1.80;;;;;;;20.78;78.15;99656.22;4992144;28;20202;-62
2022/09/09 08:46:06;;;;;;;6.30;1.83;;;;;;;20.13;79.58;99660.25;4991129;28;20184;-63
2022/09/09 08:48:58;;;;;;;5.17;1.87;;;;;;;20.17;76.91;99658.16;4993144;28;20197;-63
2022/09/09 08:51:27;;;;;;;6.17;2.00;;;;;;;20.92;74.61;99659.19;4987152;28;20309;-63
2022/09/09 08:53:55;;;;;;;6.77;2.20;;;;;;;21.78;69.81;99654.44;4994890;28;20654;-63
2022/09/09 08:56:25;;;;;;;6.73;1.60;;;;;;;22.97;61.95;99650.91;4990431;28;20639;-63
2022/09/09 08:58:53;;;;;;;9.07;2.13;;;;;;;23.65;55.95;99654.44;5006314;28;20643;-63
2022/09/09 09:01:43;;;;;;;4.07;1.53;;;;;;;26.29;46.67;99659.31;4991593;28;20231;-63
2022/09/09 09:04:46;;;;;;;3.17;1.50;;;;;;;27.31;42.57;99651.34;4995370;28;20209;-63
2022/09/09 09:07:37;;;;;;;5.88;1.48;;;;;;;27.51;40.50;99661.91;4983785;28;20198;-63
2022/09/09 09:10:18;;;;;;;5.28;1.50;;;;;;;26.88;41.04;99657.84;4983753;28;20218;-64
2022/09/09 09:12:45;;;;;;;2.80;1.20;;;;;;;26.16;43.45;99652.97;4991888;28;20195;-64
2022/09/09 09:15:18;;;;;;;4.38;1.45;;;;;;;27.92;40.66;99654.69;4991663;28;20725;-63
2022/09/09 09:17:43;;;;;;;5.13;1.23;;;;;;;27.33;40.53;99646.69;4992710;28;20215;-63
2022/09/09 09:20:16;;;;;;;8.13;1.38;;;;;;;28.02;39.39;99649.75;4987983;28;20191;-63
2022/09/09 09:22:54;;;;;;;5.00;1.67;;;;;;;25.74;43.30;99660.84;5004252;28;20252;-62
2022/09/09 09:25:22;;;;;;;5.07;1.98;;;;;;;24.80;47.20;99654.03;4991984;28;20256;-62
2022/09/09 09:28:05;;;;;;;6.35;1.20;;;;;;;24.90;47.05;99657.16;4991070;28;20558;-62
2022/09/09 09:30:39;;;;;;;4.10;1.42;;;;;;;24.57;48.88;99654.16;4986639;28;20237;-61
2022/09/09 09:33:46;;;;;;;4.85;1.35;;;;;;;23.76;50.93;99657.59;4986894;28;20208;-62
2022/09/09 09:36:15;;;;;;;5.00;1.58;;;;;;;24.54;50.58;99655.34;4998290;28;20207;-62
2022/09/09 09:38:59;;;;;;;6.60;1.70;;;;;;;26.66;44.53;99634.25;4984220;28;20187;-63
2022/09/09 09:41:31;;;;;;;4.13;1.42;;;;;;;25.07;44.40;99651.66;4975908;28;20238;-63
2022/09/09 09:43:56;;;;;;;6.30;1.73;;;;;;;24.70;45.21;99641.19;4988362;28;20632;-64
2022/09/09 09:46:25;;;;;;;5.03;1.50;;;;;;;24.38;46.23;99653.75;4987775;28;20187;-62
2022/09/09 09:49:05;;;;;;;7.65;1.33;;;;;;;23.80;49.21;99648.38;4995277;28;20286;-63
2022/09/09 09:51:32;;;;;;;2.70;1.13;;;;;;;24.30;47.58;99640.75;4991335;28;20589;-64
2022/09/09 09:54:13;;;;;;;2.10;0.93;;;;;;;25.02;44.85;99640.84;4995078;28;20191;-64
2022/09/09 09:56:39;;;;;;;3.70;1.27;;;;;;;27.88;39.04;99651.66;4991615;28;20187;-63
2022/09/09 09:59:04;;;;;;;3.15;1.10;;;;;;;28.23;36.48;99648.72;4991932;28;20640;-64
2022/09/09 10:01:35;;;;;;;4.72;1.65;;;;;;;26.93;38.51;99647.50;4991528;28;20254;-63
2022/09/09 10:04:14;;;;;;;9.27;6.45;;;;;;;25.33;42.26;99642.31;4992875;28;20579;-63
2022/09/09 10:06:40;;;;;;;4.40;1.15;;;;;;;25.19;44.49;99646.66;4987358;28;20191;-63
2022/09/09 10:09:25;;;;;;;4.63;1.10;;;;;;;25.86;43.16;99647.97;4988638;28;20199;-63
2022/09/09 10:12:24;;;;;;;4.80;1.65;;;;;;;25.97;41.38;99645.75;4995443;28;20279;-63
2022/09/09 10:14:59;;;;;;;3.75;1.20;;;;;;;27.32;40.22;99643.22;4990884;28;20220;-61
2022/09/09 10:17:31;;;;;;;6.18;1.70;;;;;;;27.40;37.94;99655.44;5001314;28;20281;-62
2022/09/09 10:20:24;;;;;;;6.90;1.27;;;;;;;25.51;41.47;99644.50;4989059;28;20187;-61
2022/09/09 10:23:11;;;;;;;4.95;1.27;;;;;;;26.98;38.38;99644.22;4961594;28;20258;-63
2022/09/09 10:26:16;;;;;;;4.57;1.38;;;;;;;29.43;33.42;99641.75;4991254;28;20535;-62
2022/09/09 10:29:21;;;;;;;3.88;1.10;;;;;;;28.57;34.97;99641.38;4990759;28;20186;-62
2022/09/09 10:31:56;;;;;;;3.88;1.50;;;;;;;28.12;36.32;99638.78;4990498;28;20234;-62
2022/09/09 10:34:37;;;;;;;4.15;1.17;;;;;;;26.95;35.89;99626.19;4971366;28;20180;-62
2022/09/09 10:37:16;;;;;;;3.35;1.02;;;;;;;25.19;40.98;99633.50;4969843;28;20644;-62
2022/09/09 10:39:42;;;;;;;3.03;1.15;;;;;;;24.00;44.59;99635.50;4970929;28;20215;-62
2022/09/09 10:42:16;;;;;;;3.55;1.40;;;;;;;22.92;47.58;99632.25;4978236;28;20235;-62
2022/09/09 10:44:57;;;;;;;5.45;1.50;;;;;;;22.73;49.57;99635.16;4984567;28;20180;-62
2022/09/09 10:47:50;;;;;;;3.42;1.35;;;;;;;21.98;50.70;99630.44;4970913;28;20655;-62
2022/09/09 10:50:47;;;;;;;5.07;1.53;;;;;;;22.34;51.95;99627.34;4960605;28;20229;-62
2022/09/09 10:53:34;;;;;;;5.10;1.47;;;;;;;22.36;49.03;99626.22;4971095;28;20652;-62
2022/09/09 10:56:21;;;;;;;4.43;0.90;;;;;;;22.47;47.66;99622.38;4967454;28;20215;-62
2022/09/09 10:59:02;;;;;;;2.93;1.23;;;;;;;22.44;48.64;99620.13;4975456;28;20188;-61
2022/09/09 11:01:33;;;;;;;2.80;1.00;;;;;;;22.67;49.13;99614.09;4975945;28;20591;-61
2022/09/09 11:04:35;;;;;;;5.37;1.50;;;;;;;22.82;49.18;99619.38;4981996;28;20219;-63
2022/09/09 11:07:08;;;;;;;4.50;1.40;;;;;;;22.59;48.32;99617.59;4979129;28;20191;-62
2022/09/09 11:09:40;;;;;;;3.77;1.17;;;;;;;22.44;49.35;99614.91;4974844;28;20196;-62
2022/09/09 11:12:15;;;;;;;3.80;1.53;;;;;;;22.64;50.50;99620.50;4981907;28;20238;-61
2022/09/09 11:14:50;;;;;;;2.93;1.10;;;;;;;22.95;49.13;99611.75;4975601;28;20706;-62
2022/09/09 11:17:22;;;;;;;2.73;0.80;;;;;;;23.09;47.79;99614.59;4978516;28;20231;-62
2022/09/09 11:19:48;;;;;;;3.23;1.10;;;;;;;23.27;47.83;99630.84;4971099;28;20210;-62
2022/09/09 11:22:53;;;;;;;3.03;1.13;;;;;;;23.30;46.47;99617.38;4981001;28;20690;-63
2022/09/09 11:25:22;;;;;;;6.73;1.53;;;;;;;23.04;46.51;99618.53;4975322;28;20552;-62
2022/09/09 11:28:11;;;;;;;6.10;1.40;;;;;;;22.93;47.99;99608.47;4972462;28;20184;-63
2022/09/09 11:31:03;;;;;;;2.67;1.30;;;;;;;22.81;50.12;99602.00;4941558;28;20612;-62
2022/09/09 11:33:41;;;;;;;5.33;1.07;;;;;;;22.85;48.87;99606.75;4990234;28;20184;-63
2022/09/09 11:36:28;;;;;;;3.43;1.30;;;;;;;22.95;50.83;99613.56;4976611;28;20703;-62
2022/09/09 11:39:21;;;;;;;4.30;1.27;;;;;;;22.75;49.63;99628.94;4973360;28;21393;-62
2022/09/09 11:41:46;;;;;;;5.00;1.60;;;;;;;22.66;51.26;99613.28;4992432;28;20333;-62
2022/09/09 11:44:17;;;;;;;6.80;1.20;;;;;;;22.92;50.15;99619.16;4974731;28;20216;-62
2022/09/09 11:46:49;;;;;;;3.97;1.20;;;;;;;22.88;49.50;99610.81;4973088;28;20663;-63
2022/09/09 11:49:45;;;;;;;2.90;1.03;;;;;;;22.94;49.77;99610.09;4972394;28;20298;-63
2022/09/09 11:52:21;;;;;;;3.13;1.23;;;;;;;23.15;46.73;99619.94;4995222;28;20234;-62
2022/09/09 11:54:49;;;;;;;4.70;1.50;;;;;;;23.09;46.88;99617.22;4973225;28;20825;-63